Sunnyslope, Idaho
Current Conditions -  °F | °C
As of 5:15 PM on Monday 20 Oct 2014 (Local Time) from KEUL Reporting Station
Clear Clear  
Wind Chill: 73°   Ceiling: Unl
Heat Index: 73°   Visibility: 10mi
Dew Point: 41°   Wind: 6mph
Humidity: 31%   Direction: 320°NW
Pressure: 29.75"   Gusts: NA
Location:  43.676°N, 116.752°W
Report Text: KEUL 202315Z AUTO 32005KT 10SM CLR 23/05 A2975 RMK AO1
Loading
Personal Weather Stations






























Interactive Weather Map
Tropical Storm Tracking
New forecast layout! Learn more

10-Day Weather Forecast

Advertisements
Track Severe Weather on mobile